Time;durP1;ratioP1;P1;durP2;ratioP2;P2;SDS_P1;SDS_P2;PMS_P1;PMS_P2;Temp;Humidity;BMP_temperature;BMP_pressure;BME280_temperature;BME280_humidity;BME280_pressure;Samples;Min_cycle;Max_cycle;Signal;HPM_P1;HPM_P2
2024/01/06 00:01:25;;;;;;;;;;;17.60;45.70;;;;;;1585811;73;675;-71
2024/01/06 00:03:27;;;;;;;;;;;17.60;45.70;;;;;;1597844;73;761;-72
2024/01/06 00:05:29;;;;;;;;;;;17.50;45.70;;;;;;1581064;73;1184;-72
2024/01/06 00:07:31;;;;;;;;;;;17.50;45.70;;;;;;1587697;73;724;-71
2024/01/06 00:09:33;;;;;;;;;;;17.60;45.70;;;;;;1578435;73;704;-70
2024/01/06 00:11:35;;;;;;;;;;;17.60;45.70;;;;;;1584909;74;736;-70
2024/01/06 00:13:36;;;;;;;;;;;17.50;45.70;;;;;;1578998;74;1548;-71
2024/01/06 00:15:38;;;;;;;;;;;17.60;45.60;;;;;;1578630;74;1132;-69
2024/01/06 00:17:40;;;;;;;;;;;17.60;45.60;;;;;;1592411;74;1941;-69
2024/01/06 00:19:42;;;;;;;;;;;17.60;45.70;;;;;;1587429;73;703;-69
2024/01/06 00:21:44;;;;;;;;;;;17.60;45.60;;;;;;1590043;74;734;-72
2024/01/06 00:23:46;;;;;;;;;;;17.60;45.70;;;;;;1578127;74;721;-72
2024/01/06 00:25:48;;;;;;;;;;;17.50;45.70;;;;;;1582333;74;1225;-72
2024/01/06 00:27:50;;;;;;;;;;;17.50;45.70;;;;;;1588108;74;1591;-69
2024/01/06 00:29:51;;;;;;;;;;;17.60;45.70;;;;;;1585286;74;588;-71
2024/01/06 00:31:53;;;;;;;;;;;17.50;45.60;;;;;;1581906;74;685;-69
2024/01/06 00:33:55;;;;;;;;;;;17.50;45.60;;;;;;1591235;74;724;-70
2024/01/06 00:35:57;;;;;;;;;;;17.50;45.60;;;;;;1574047;74;1139;-68
2024/01/06 00:38:00;;;;;;;;;;;17.60;45.60;;;;;;1591366;74;1942;-70
2024/01/06 00:40:02;;;;;;;;;;;17.60;45.60;;;;;;1574232;74;1577;-68
2024/01/06 00:42:04;;;;;;;;;;;17.60;45.60;;;;;;1583956;74;693;-69
2024/01/06 00:44:06;;;;;;;;;;;17.60;45.60;;;;;;1576078;74;715;-69
2024/01/06 00:46:08;;;;;;;;;;;17.50;45.60;;;;;;1575198;73;1096;-68
2024/01/06 00:48:10;;;;;;;;;;;17.50;45.70;;;;;;1583026;74;733;-72
2024/01/06 00:50:12;;;;;;;;;;;17.50;45.60;;;;;;1583173;74;726;-70
2024/01/06 00:52:13;;;;;;;;;;;17.50;45.60;;;;;;1587623;74;787;-68
2024/01/06 00:54:15;;;;;;;;;;;17.50;45.60;;;;;;1581375;74;1319;-68
2024/01/06 00:56:17;;;;;;;;;;;17.50;45.60;;;;;;1581507;74;1147;-70
2024/01/06 00:58:19;;;;;;;;;;;17.50;45.60;;;;;;1582208;74;1937;-72
2024/01/06 01:00:22;;;;;;;;;;;17.60;45.60;;;;;;1585852;74;784;-69
2024/01/06 01:02:24;;;;;;;;;;;17.50;45.60;;;;;;1582125;74;795;-72
2024/01/06 01:04:26;;;;;;;;;;;17.60;45.50;;;;;;1584912;74;666;-70
2024/01/06 01:06:28;;;;;;;;;;;17.50;45.50;;;;;;1578623;73;1127;-68
2024/01/06 01:08:30;;;;;;;;;;;17.60;45.50;;;;;;1583814;74;1561;-69
2024/01/06 01:10:32;;;;;;;;;;;17.60;45.50;;;;;;1587138;73;826;-70
2024/01/06 01:12:34;;;;;;;;;;;17.50;45.50;;;;;;1578573;74;698;-70
2024/01/06 01:14:36;;;;;;;;;;;17.50;45.60;;;;;;1577511;74;759;-68
2024/01/06 01:16:38;;;;;;;;;;;17.50;45.50;;;;;;1581177;73;1161;-72
2024/01/06 01:18:40;;;;;;;;;;;17.50;45.50;;;;;;1584955;73;1942;-72
2024/01/06 01:20:44;;;;;;;;;;;17.60;45.50;;;;;;1590396;74;846;-69
2024/01/06 01:22:46;;;;;;;;;;;17.60;45.50;;;;;;1580531;74;1557;-68
2024/01/06 01:24:48;;;;;;;;;;;17.60;45.50;;;;;;1585353;74;637;-67
2024/01/06 01:26:50;;;;;;;;;;;17.50;45.60;;;;;;1578429;74;1150;-70
2024/01/06 01:28:52;;;;;;;;;;;17.60;45.50;;;;;;1589212;73;862;-68
2024/01/06 01:30:54;;;;;;;;;;;17.50;45.50;;;;;;1589947;73;753;-71
2024/01/06 01:32:55;;;;;;;;;;;17.60;45.50;;;;;;1590800;74;682;-69
2024/01/06 01:34:57;;;;;;;;;;;17.60;45.50;;;;;;1588354;74;819;-68
2024/01/06 01:37:00;;;;;;;;;;;17.60;45.50;;;;;;1576999;74;1597;-67
2024/01/06 01:39:02;;;;;;;;;;;17.50;45.50;;;;;;1589334;74;1900;-69
2024/01/06 01:41:03;;;;;;;;;;;17.60;45.50;;;;;;1580413;74;682;-68
2024/01/06 01:43:06;;;;;;;;;;;17.50;45.50;;;;;;1586085;74;789;-72
2024/01/06 01:45:08;;;;;;;;;;;17.50;45.50;;;;;;1575320;74;768;-69
2024/01/06 01:47:10;;;;;;;;;;;17.50;45.50;;;;;;1588618;73;1103;-69
2024/01/06 01:49:12;;;;;;;;;;;17.50;45.50;;;;;;1585660;74;736;-69
2024/01/06 01:51:14;;;;;;;;;;;17.50;45.50;;;;;;1583108;74;1562;-71
2024/01/06 01:53:16;;;;;;;;;;;17.60;45.50;;;;;;1581468;74;709;-68
2024/01/06 01:55:18;;;;;;;;;;;17.50;45.50;;;;;;1576260;74;676;-72
2024/01/06 01:57:20;;;;;;;;;;;17.50;45.50;;;;;;1595168;73;1144;-72
2024/01/06 01:59:22;;;;;;;;;;;17.50;45.50;;;;;;1589115;73;1946;-71
2024/01/06 02:01:24;;;;;;;;;;;17.50;45.40;;;;;;1587126;74;757;-68
2024/01/06 02:03:26;;;;;;;;;;;17.50;45.40;;;;;;1583743;74;687;-67
2024/01/06 02:05:28;;;;;;;;;;;17.50;45.40;;;;;;1584165;74;1465;-70
2024/01/06 02:07:29;;;;;;;;;;;17.60;45.40;;;;;;1578327;74;759;-72
2024/01/06 02:09:31;;;;;;;;;;;17.50;45.40;;;;;;1589757;74;736;-69
2024/01/06 02:11:33;;;;;;;;;;;17.60;45.40;;;;;;1582535;74;615;-72
2024/01/06 02:13:35;;;;;;;;;;;17.50;45.50;;;;;;1591528;73;764;-72
2024/01/06 02:15:38;;;;;;;;;;;17.50;45.40;;;;;;1573922;74;1254;-69
2024/01/06 02:17:40;;;;;;;;;;;17.50;45.40;;;;;;1575022;74;752;-68
2024/01/06 02:19:42;;;;;;;;;;;17.50;45.40;;;;;;1580508;73;1935;-68
2024/01/06 02:21:44;;;;;;;;;;;17.60;45.40;;;;;;1580074;74;702;-71
2024/01/06 02:23:46;;;;;;;;;;;17.50;45.40;;;;;;1576015;74;695;-68
2024/01/06 02:25:48;;;;;;;;;;;17.50;45.40;;;;;;1573508;73;1162;-67
2024/01/06 02:27:50;;;;;;;;;;;17.60;45.40;;;;;;1588568;73;714;-72
2024/01/06 02:29:51;;;;;;;;;;;17.60;45.40;;;;;;1580691;74;851;-69
2024/01/06 02:31:53;;;;;;;;;;;17.50;45.40;;;;;;1583415;74;781;-69
2024/01/06 02:33:55;;;;;;;;;;;17.50;45.40;;;;;;1578005;74;1540;-71
2024/01/06 02:35:57;;;;;;;;;;;17.50;45.40;;;;;;1594480;72;1118;-66
2024/01/06 02:37:59;;;;;;;;;;;17.50;45.40;;;;;;1574215;74;654;-71
2024/01/06 02:40:01;;;;;;;;;;;17.60;45.40;;;;;;1585404;74;1937;-71
2024/01/06 02:42:03;;;;;;;;;;;17.50;45.40;;;;;;1581368;74;768;-72
2024/01/06 02:44:05;;;;;;;;;;;17.50;45.40;;;;;;1585794;74;669;-71
2024/01/06 02:46:07;;;;;;;;;;;17.50;45.40;;;;;;1574855;74;1133;-71
2024/01/06 02:48:09;;;;;;;;;;;17.50;45.40;;;;;;1584817;74;1388;-71
2024/01/06 02:50:11;;;;;;;;;;;17.50;45.40;;;;;;1589911;74;645;-71
2024/01/06 02:52:13;;;;;;;;;;;17.50;45.40;;;;;;1569980;74;808;-70
2024/01/06 02:54:15;;;;;;;;;;;17.50;45.40;;;;;;1583668;74;722;-72
2024/01/06 02:56:17;;;;;;;;;;;17.50;45.40;;;;;;1584885;73;1109;-68
2024/01/06 02:58:18;;;;;;;;;;;17.50;45.30;;;;;;1588050;74;739;-71
2024/01/06 03:00:20;;;;;;;;;;;17.50;45.30;;;;;;1577369;74;1946;-69
2024/01/06 03:02:22;;;;;;;;;;;17.50;45.30;;;;;;1577536;73;1305;-71
2024/01/06 03:04:24;;;;;;;;;;;17.50;45.40;;;;;;1588959;74;688;-72
2024/01/06 03:06:26;;;;;;;;;;;17.50;45.30;;;;;;1589524;73;1137;-72
2024/01/06 03:08:28;;;;;;;;;;;17.50;45.30;;;;;;1568949;73;675;-72
2024/01/06 03:10:30;;;;;;;;;;;17.50;45.30;;;;;;1585412;74;648;-69
2024/01/06 03:12:32;;;;;;;;;;;17.60;45.30;;;;;;1579392;74;717;-72
2024/01/06 03:14:35;;;;;;;;;;;17.50;45.30;;;;;;1578186;74;760;-70
2024/01/06 03:16:37;;;;;;;;;;;17.50;45.30;;;;;;1589360;74;1531;-71
2024/01/06 03:18:39;;;;;;;;;;;17.50;45.30;;;;;;1581435;74;1906;-69
2024/01/06 03:20:41;;;;;;;;;;;17.50;45.30;;;;;;1581820;74;784;-66
2024/01/06 03:22:43;;;;;;;;;;;17.50;45.20;;;;;;1587340;74;778;-70
2024/01/06 03:24:45;;;;;;;;;;;17.50;45.20;;;;;;1592187;73;721;-72
2024/01/06 03:26:47;;;;;;;;;;;17.50;45.20;;;;;;1586415;74;1169;-70
2024/01/06 03:28:50;;;;;;;;;;;17.60;45.30;;;;;;1573396;74;1544;-72
2024/01/06 03:30:52;;;;;;;;;;;17.50;45.20;;;;;;1583147;74;708;-71
2024/01/06 03:32:53;;;;;;;;;;;17.50;45.30;;;;;;1587651;74;725;-69
2024/01/06 03:34:55;;;;;;;;;;;17.50;45.20;;;;;;1579347;73;731;-69
2024/01/06 03:36:57;;;;;;;;;;;17.50;45.20;;;;;;1582326;73;1123;-66
2024/01/06 03:38:59;;;;;;;;;;;17.50;45.20;;;;;;1585694;74;1933;-66
2024/01/06 03:41:01;;;;;;;;;;;17.50;45.20;;;;;;1583118;73;773;-71
2024/01/06 03:43:03;;;;;;;;;;;17.50;45.20;;;;;;1586573;73;1543;-67
2024/01/06 03:45:05;;;;;;;;;;;17.50;45.20;;;;;;1582660;73;798;-70
2024/01/06 03:47:07;;;;;;;;;;;17.60;45.20;;;;;;1578667;73;1130;-71
2024/01/06 03:49:09;;;;;;;;;;;17.50;45.20;;;;;;1582010;74;731;-70
2024/01/06 03:51:11;;;;;;;;;;;17.50;45.20;;;;;;1582987;74;695;-69
2024/01/06 03:53:13;;;;;;;;;;;17.50;45.20;;;;;;1585955;74;761;-72
2024/01/06 03:55:16;;;;;;;;;;;17.50;45.20;;;;;;1591400;73;770;-70
2024/01/06 03:57:18;;;;;;;;;;;17.50;45.20;;;;;;1578443;74;1573;-68
2024/01/06 03:59:20;;;;;;;;;;;17.50;45.20;;;;;;1589245;74;1902;-67
2024/01/06 04:01:22;;;;;;;;;;;17.50;45.20;;;;;;1573824;74;661;-71
2024/01/06 04:03:24;;;;;;;;;;;17.50;45.20;;;;;;1594897;74;716;-69
2024/01/06 04:05:25;;;;;;;;;;;17.50;45.20;;;;;;1578179;73;1137;-68
2024/01/06 04:07:27;;;;;;;;;;;17.50;45.10;;;;;;1588920;74;680;-71
2024/01/06 04:09:29;;;;;;;;;;;17.50;45.10;;;;;;1583770;74;785;-71
2024/01/06 04:11:31;;;;;;;;;;;17.50;45.20;;;;;;1586424;73;1518;-72
2024/01/06 04:13:33;;;;;;;;;;;17.50;45.10;;;;;;1577950;74;572;-71
2024/01/06 04:15:35;;;;;;;;;;;17.50;45.10;;;;;;1581907;74;1098;-69
2024/01/06 04:17:37;;;;;;;;;;;17.50;45.00;;;;;;1592682;74;817;-71
2024/01/06 04:19:38;;;;;;;;;;;17.50;45.20;;;;;;1583815;74;1939;-70
2024/01/06 04:21:40;;;;;;;;;;;17.50;45.10;;;;;;1577845;74;794;-72
2024/01/06 04:23:42;;;;;;;;;;;17.50;45.20;;;;;;1584014;74;822;-71
2024/01/06 04:25:44;;;;;;;;;;;17.50;45.10;;;;;;1582830;73;1545;-71
2024/01/06 04:27:46;;;;;;;;;;;17.40;44.90;;;;;;1589441;74;684;-72
2024/01/06 04:29:52;;;;;;;;;;;17.50;45.10;;;;;;1594430;74;754;-71
2024/01/06 04:31:52;;;;;;;;;;;17.50;45.00;;;;;;1578288;74;1483;-71
2024/01/06 04:33:54;;;;;;;;;;;17.50;45.00;;;;;;1587019;74;833;-68
2024/01/06 04:35:56;;;;;;;;;;;17.50;45.10;;;;;;1579445;74;1161;-70
2024/01/06 04:37:57;;;;;;;;;;;17.50;45.00;;;;;;1585456;74;743;-67
2024/01/06 04:39:59;;;;;;;;;;;17.50;45.10;;;;;;1583847;74;1929;-68
2024/01/06 04:42:01;;;;;;;;;;;17.50;45.10;;;;;;1579561;74;748;-68
2024/01/06 04:44:03;;;;;;;;;;;17.40;44.90;;;;;;1577871;74;711;-66
2024/01/06 04:46:05;;;;;;;;;;;17.40;44.90;;;;;;1578942;74;1135;-69
2024/01/06 04:48:07;;;;;;;;;;;17.50;45.00;;;;;;1589789;74;769;-69
2024/01/06 04:50:09;;;;;;;;;;;17.50;45.00;;;;;;1582668;74;725;-72
2024/01/06 04:52:11;;;;;;;;;;;17.50;45.00;;;;;;1586401;74;761;-70
2024/01/06 04:54:13;;;;;;;;;;;17.50;45.00;;;;;;1587770;73;1517;-72
2024/01/06 04:56:15;;;;;;;;;;;17.50;45.00;;;;;;1587462;74;1108;-72
2024/01/06 04:58:17;;;;;;;;;;;17.40;44.90;;;;;;1586394;74;733;-69
2024/01/06 05:00:18;;;;;;;;;;;17.50;45.00;;;;;;1587316;73;1957;-69
2024/01/06 05:02:20;;;;;;;;;;;17.40;44.80;;;;;;1579653;74;801;-72
2024/01/06 05:04:22;;;;;;;;;;;17.50;45.00;;;;;;1579789;74;571;-71
2024/01/06 05:06:24;;;;;;;;;;;17.40;44.90;;;;;;1579851;74;1145;-72
2024/01/06 05:08:26;;;;;;;;;;;17.40;44.70;;;;;;1583718;74;1600;-70
2024/01/06 05:10:28;;;;;;;;;;;17.50;45.00;;;;;;1588298;74;811;-69
2024/01/06 05:12:30;;;;;;;;;;;17.40;44.90;;;;;;1584985;74;736;-67
2024/01/06 05:14:32;;;;;;;;;;;17.50;45.00;;;;;;1596300;74;762;-70
2024/01/06 05:16:33;;;;;;;;;;;17.50;44.90;;;;;;1583670;73;1177;-71
2024/01/06 05:18:35;;;;;;;;;;;17.50;45.00;;;;;;1583653;74;751;-70
2024/01/06 05:20:37;;;;;;;;;;;17.40;44.80;;;;;;1584540;74;1930;-72
2024/01/06 05:22:39;;;;;;;;;;;17.50;44.90;;;;;;1583637;74;1582;-72
2024/01/06 05:24:41;;;;;;;;;;;17.50;44.90;;;;;;1589789;74;753;-69
2024/01/06 05:26:43;;;;;;;;;;;17.50;44.90;;;;;;1586778;74;1120;-68
2024/01/06 05:28:45;;;;;;;;;;;17.50;44.90;;;;;;1580919;74;756;-71
2024/01/06 05:30:47;;;;;;;;;;;17.50;45.00;;;;;;1577721;74;741;-71
2024/01/06 05:32:48;;;;;;;;;;;17.50;44.90;;;;;;1583736;74;736;-70
2024/01/06 05:34:50;;;;;;;;;;;17.50;44.90;;;;;;1575312;74;721;-71
2024/01/06 05:36:53;;;;;;;;;;;17.40;44.70;;;;;;1582890;73;1262;-72
2024/01/06 05:38:54;;;;;;;;;;;17.40;44.70;;;;;;1575045;74;752;-71
2024/01/06 05:40:56;;;;;;;;;;;17.40;44.70;;;;;;1585016;74;1937;-72
2024/01/06 05:42:58;;;;;;;;;;;17.40;44.70;;;;;;1574169;74;803;-70
2024/01/06 05:45:00;;;;;;;;;;;17.50;44.80;;;;;;1579914;74;752;-69
2024/01/06 05:47:02;;;;;;;;;;;17.50;44.90;;;;;;1584832;74;1164;-72
2024/01/06 05:49:04;;;;;;;;;;;17.40;44.70;;;;;;1595182;74;780;-69
2024/01/06 05:51:06;;;;;;;;;;;17.40;44.70;;;;;;1587145;74;1419;-71
2024/01/06 05:53:08;;;;;;;;;;;17.40;44.70;;;;;;1586928;74;699;-72
2024/01/06 05:55:10;;;;;;;;;;;17.50;44.80;;;;;;1569370;74;682;-72
2024/01/06 05:57:12;;;;;;;;;;;17.40;44.70;;;;;;1578725;74;1113;-69
2024/01/06 05:59:14;;;;;;;;;;;17.50;44.70;;;;;;1579937;74;719;-71
2024/01/06 06:01:16;;;;;;;;;;;17.50;44.70;;;;;;1580280;73;1915;-69
2024/01/06 06:03:18;;;;;;;;;;;17.40;44.70;;;;;;1575648;74;656;-69
2024/01/06 06:05:20;;;;;;;;;;;17.40;44.70;;;;;;1577312;74;1699;-72
2024/01/06 06:07:22;;;;;;;;;;;17.40;44.60;;;;;;1584180;74;1140;-70
2024/01/06 06:09:24;;;;;;;;;;;17.50;44.80;;;;;;1570927;73;736;-68
2024/01/06 06:11:25;;;;;;;;;;;17.50;44.80;;;;;;1587996;74;727;-71
2024/01/06 06:13:28;;;;;;;;;;;17.50;44.80;;;;;;1585308;74;802;-71
2024/01/06 06:15:30;;;;;;;;;;;17.50;44.80;;;;;;1588399;74;1096;-68
2024/01/06 06:17:32;;;;;;;;;;;17.50;44.80;;;;;;1586179;74;1526;-70
2024/01/06 06:19:34;;;;;;;;;;;17.50;44.70;;;;;;1591450;74;729;-71
2024/01/06 06:21:36;;;;;;;;;;;17.40;44.60;;;;;;1586758;74;1904;-68
2024/01/06 06:23:38;;;;;;;;;;;17.50;44.70;;;;;;1588601;74;822;-72
2024/01/06 06:25:40;;;;;;;;;;;17.40;44.70;;;;;;1582911;74;1153;-68
2024/01/06 06:27:42;;;;;;;;;;;17.50;44.70;;;;;;1581430;74;660;-68
2024/01/06 06:29:43;;;;;;;;;;;17.40;44.60;;;;;;1584421;74;744;-69
2024/01/06 06:31:46;;;;;;;;;;;17.40;44.70;;;;;;1581022;74;1556;-70
2024/01/06 06:33:48;;;;;;;;;;;17.50;44.70;;;;;;1581846;73;800;-71
2024/01/06 06:35:50;;;;;;;;;;;17.50;44.70;;;;;;1586538;73;1146;-70
2024/01/06 06:37:52;;;;;;;;;;;17.40;44.60;;;;;;1589061;74;804;-67
2024/01/06 06:39:54;;;;;;;;;;;17.50;44.70;;;;;;1585381;74;2171;-67
2024/01/06 06:41:56;;;;;;;;;;;17.50;44.70;;;;;;1584629;74;700;-72
2024/01/06 06:43:58;;;;;;;;;;;17.50;44.70;;;;;;1588147;74;668;-71
2024/01/06 06:45:59;;;;;;;;;;;17.40;44.50;;;;;;1593939;74;1619;-69
2024/01/06 06:48:01;;;;;;;;;;;17.50;44.70;;;;;;1577794;74;747;-67
2024/01/06 06:50:03;;;;;;;;;;;17.40;44.60;;;;;;1577126;74;714;-72
2024/01/06 06:52:07;;;;;;;;;;;17.50;44.70;;;;;;1592304;73;673;-70
2024/01/06 06:54:08;;;;;;;;;;;17.40;44.60;;;;;;1578488;74;793;-70
2024/01/06 06:56:10;;;;;;;;;;;17.40;44.60;;;;;;1593985;72;1138;-69
2024/01/06 06:58:12;;;;;;;;;;;17.40;44.50;;;;;;1586148;74;793;-68
2024/01/06 07:00:16;;;;;;;;;;;17.40;44.60;;;;;;1589078;73;1931;-71
2024/01/06 07:02:17;;;;;;;;;;;17.40;44.60;;;;;;1573768;74;745;-69
2024/01/06 07:04:19;;;;;;;;;;;17.40;44.50;;;;;;1583315;74;727;-71
2024/01/06 07:06:21;;;;;;;;;;;17.40;44.50;;;;;;1592664;73;1149;-69
2024/01/06 07:08:23;;;;;;;;;;;17.50;44.70;;;;;;1591270;74;735;-68
2024/01/06 07:10:25;;;;;;;;;;;17.50;44.70;;;;;;1585783;73;721;-72
2024/01/06 07:12:27;;;;;;;;;;;17.50;44.60;;;;;;1590573;74;729;-72
2024/01/06 07:14:29;;;;;;;;;;;17.40;44.50;;;;;;1585448;74;1428;-72
2024/01/06 07:16:31;;;;;;;;;;;17.50;44.70;;;;;;1591162;74;1151;-72
2024/01/06 07:18:33;;;;;;;;;;;17.50;44.70;;;;;;1584265;74;804;-72
2024/01/06 07:20:35;;;;;;;;;;;17.40;44.40;;;;;;1593910;73;1960;-70
2024/01/06 07:22:37;;;;;;;;;;;17.50;44.70;;;;;;1586084;74;770;-70
2024/01/06 07:24:38;;;;;;;;;;;17.40;44.50;;;;;;1584813;74;822;-70
2024/01/06 07:26:40;;;;;;;;;;;17.40;44.50;;;;;;1568665;74;1139;-72
2024/01/06 07:28:42;;;;;;;;;;;17.40;44.50;;;;;;1585559;74;1289;-69
2024/01/06 07:30:44;;;;;;;;;;;17.40;44.50;;;;;;1583493;75;962;-72
2024/01/06 07:32:47;;;;;;;;;;;17.40;44.50;;;;;;1586060;74;721;-72
2024/01/06 07:34:49;;;;;;;;;;;17.40;44.40;;;;;;1573271;74;809;-72
2024/01/06 07:36:51;;;;;;;;;;;17.40;44.50;;;;;;1592851;73;1173;-70
2024/01/06 07:38:53;;;;;;;;;;;17.40;44.50;;;;;;1581819;74;819;-71
2024/01/06 07:40:54;;;;;;;;;;;17.50;44.60;;;;;;1587409;74;1930;-70
2024/01/06 07:42:56;;;;;;;;;;;17.40;44.40;;;;;;1580966;74;1560;-71
2024/01/06 07:44:58;;;;;;;;;;;17.50;44.60;;;;;;1588184;74;793;-69
2024/01/06 07:47:02;;;;;;;;;;;17.40;44.40;;;;;;1577800;74;1149;-70
2024/01/06 07:49:04;;;;;;;;;;;17.40;44.40;;;;;;1585504;74;739;-68
2024/01/06 07:51:06;;;;;;;;;;;17.40;44.40;;;;;;1597275;73;752;-71
2024/01/06 07:53:08;;;;;;;;;;;17.40;44.40;;;;;;1589049;74;591;-68
2024/01/06 07:55:10;;;;;;;;;;;17.40;44.40;;;;;;1572399;74;699;-68
2024/01/06 07:57:12;;;;;;;;;;;17.40;44.40;;;;;;1583325;74;1610;-68
2024/01/06 07:59:14;;;;;;;;;;;17.40;44.40;;;;;;1585032;74;678;-72
2024/01/06 08:01:16;;;;;;;;;;;17.40;44.40;;;;;;1585219;74;1929;-72
2024/01/06 08:03:18;;;;;;;;;;;17.40;44.40;;;;;;1581408;73;680;-69
2024/01/06 08:05:20;;;;;;;;;;;17.40;44.40;;;;;;1595059;74;799;-71
2024/01/06 08:07:22;;;;;;;;;;;17.40;44.40;;;;;;1591254;74;1158;-71
2024/01/06 08:09:24;;;;;;;;;;;17.40;44.40;;;;;;1586780;74;749;-70
2024/01/06 08:11:26;;;;;;;;;;;17.40;44.30;;;;;;1587785;74;1550;-69
2024/01/06 08:13:28;;;;;;;;;;;17.40;44.30;;;;;;1588208;74;578;-68
2024/01/06 08:15:32;;;;;;;;;;;17.40;44.40;;;;;;1585216;74;1207;-71
2024/01/06 08:17:33;;;;;;;;;;;17.40;44.40;;;;;;1583179;74;1670;-72
2024/01/06 08:19:35;;;;;;;;;;;17.40;44.40;;;;;;1584749;73;703;-69
2024/01/06 08:21:37;;;;;;;;;;;17.40;44.40;;;;;;1592036;73;1921;-66
2024/01/06 08:23:39;;;;;;;;;;;17.40;44.40;;;;;;1588796;73;742;-64
2024/01/06 08:25:41;;;;;;;;;;;17.50;44.50;;;;;;1585506;74;1349;-69
2024/01/06 08:27:43;;;;;;;;;;;17.40;44.30;;;;;;1582239;74;745;-70
2024/01/06 08:29:45;;;;;;;;;;;17.40;44.40;;;;;;1593102;74;735;-70
2024/01/06 08:31:47;;;;;;;;;;;17.40;44.40;;;;;;1574900;74;793;-70
2024/01/06 08:33:49;;;;;;;;;;;17.40;44.40;;;;;;1579243;74;767;-72
2024/01/06 08:35:51;;;;;;;;;;;17.40;44.30;;;;;;1580864;73;1146;-69
2024/01/06 08:37:53;;;;;;;;;;;17.40;44.30;;;;;;1573696;74;709;-68
2024/01/06 08:39:54;;;;;;;;;;;17.40;44.40;;;;;;1586073;74;1620;-70
2024/01/06 08:41:56;;;;;;;;;;;17.40;44.40;;;;;;1572265;73;1936;-69
2024/01/06 08:43:58;;;;;;;;;;;17.40;44.30;;;;;;1575925;74;669;-70
2024/01/06 08:46:00;;;;;;;;;;;17.40;44.30;;;;;;1594772;74;1198;-69
2024/01/06 08:48:02;;;;;;;;;;;17.40;44.30;;;;;;1589352;73;732;-68
2024/01/06 08:50:04;;;;;;;;;;;17.40;44.30;;;;;;1581187;74;651;-69
2024/01/06 08:52:06;;;;;;;;;;;17.40;44.30;;;;;;1577370;74;670;-69
2024/01/06 08:54:08;;;;;;;;;;;17.40;44.30;;;;;;1584915;74;1833;-71
2024/01/06 08:56:09;;;;;;;;;;;17.40;44.30;;;;;;1579527;74;1202;-68
2024/01/06 08:58:11;;;;;;;;;;;17.40;44.40;;;;;;1582505;74;747;-67
2024/01/06 09:00:14;;;;;;;;;;;17.40;44.40;;;;;;1582131;74;752;-67
2024/01/06 09:02:15;;;;;;;;;;;17.40;44.30;;;;;;1586887;74;1913;-69
2024/01/06 09:04:17;;;;;;;;;;;17.40;44.30;;;;;;1581074;74;747;-70
2024/01/06 09:06:19;;;;;;;;;;;17.40;44.30;;;;;;1580835;74;1353;-70
2024/01/06 09:08:22;;;;;;;;;;;17.40;44.30;;;;;;1588652;73;811;-71
2024/01/06 09:10:23;;;;;;;;;;;17.40;44.30;;;;;;1582614;73;774;-69
2024/01/06 09:12:25;;;;;;;;;;;17.40;44.30;;;;;;1577329;73;748;-72
2024/01/06 09:14:27;;;;;;;;;;;17.40;44.30;;;;;;1584016;74;777;-69
2024/01/06 09:16:29;;;;;;;;;;;17.40;44.30;;;;;;1587257;74;1147;-67
2024/01/06 09:18:31;;;;;;;;;;;17.40;44.20;;;;;;1587969;73;760;-68
2024/01/06 09:20:33;;;;;;;;;;;17.40;44.30;;;;;;1583040;74;1319;-71
2024/01/06 09:22:35;;;;;;;;;;;17.40;44.20;;;;;;1574476;74;1922;-71
2024/01/06 09:24:37;;;;;;;;;;;17.40;44.20;;;;;;1579871;73;732;-67
2024/01/06 09:26:39;;;;;;;;;;;17.40;44.20;;;;;;1597620;74;1148;-71
2024/01/06 09:28:41;;;;;;;;;;;17.30;44.20;;;;;;1590847;74;803;-71
2024/01/06 09:30:43;;;;;;;;;;;17.40;44.20;;;;;;1577505;74;774;-67
2024/01/06 09:32:44;;;;;;;;;;;17.40;44.30;;;;;;1595136;73;724;-70
2024/01/06 09:34:46;;;;;;;;;;;17.40;44.20;;;;;;1592691;73;1562;-72
2024/01/06 09:36:48;;;;;;;;;;;17.40;44.20;;;;;;1575175;74;1191;-71
2024/01/06 09:38:50;;;;;;;;;;;17.40;44.20;;;;;;1587556;74;627;-72
2024/01/06 09:40:52;;;;;;;;;;;17.40;44.20;;;;;;1577122;74;760;-71
2024/01/06 09:42:54;;;;;;;;;;;17.40;44.10;;;;;;1586108;74;756;-71
2024/01/06 09:44:56;;;;;;;;;;;17.40;44.20;;;;;;1588985;73;723;-72
2024/01/06 09:46:59;;;;;;;;;;;17.40;44.20;;;;;;1584526;73;1124;-69
2024/01/06 09:49:02;;;;;;;;;;;17.40;44.20;;;;;;1588119;74;1417;-69
2024/01/06 09:51:04;;;;;;;;;;;17.40;44.20;;;;;;1573794;73;693;-71
2024/01/06 09:53:06;;;;;;;;;;;17.40;44.20;;;;;;1586141;74;640;-72
2024/01/06 09:55:10;;;;;;;;;;;17.40;44.10;;;;;;1598055;73;681;-71
2024/01/06 09:57:12;;;;;;;;;;;17.40;44.20;;;;;;1587368;73;1063;-71
2024/01/06 09:59:14;;;;;;;;;;;17.40;44.20;;;;;;1552125;75;709;-72
2024/01/06 10:01:16;;;;;;;;;;;17.40;44.20;;;;;;1582301;73;1915;-69
2024/01/06 10:03:18;;;;;;;;;;;17.40;44.10;;;;;;1580122;73;1524;-67
2024/01/06 10:05:20;;;;;;;;;;;17.30;44.10;;;;;;1592111;73;727;-70
2024/01/06 10:07:22;;;;;;;;;;;17.40;44.10;;;;;;1583443;74;1149;-72
2024/01/06 10:09:28;;;;;;;;;;;17.30;44.10;;;;;;1570874;74;741;-69
2024/01/06 10:11:30;;;;;;;;;;;17.40;44.10;;;;;;1588916;74;700;-71
2024/01/06 10:13:32;;;;;;;;;;;17.40;44.10;;;;;;1580173;74;736;-72
2024/01/06 10:15:34;;;;;;;;;;;17.40;44.10;;;;;;1584969;74;1156;-71
2024/01/06 10:17:39;;;;;;;;;;;17.40;44.10;;;;;;1551473;74;1403;-67
2024/01/06 10:19:40;;;;;;;;;;;17.30;44.20;;;;;;1588582;74;740;-69
2024/01/06 10:21:42;;;;;;;;;;;17.40;44.10;;;;;;1586506;74;1941;-69
2024/01/06 10:23:45;;;;;;;;;;;17.40;44.10;;;;;;1576138;74;786;-69
2024/01/06 10:25:47;;;;;;;;;;;17.40;44.10;;;;;;1590177;74;1185;-69
2024/01/06 10:27:49;;;;;;;;;;;17.40;44.10;;;;;;1585577;74;727;-70
2024/01/06 10:29:51;;;;;;;;;;;17.40;44.10;;;;;;1588070;74;727;-69
2024/01/06 10:31:53;;;;;;;;;;;17.40;44.10;;;;;;1585172;74;1627;-69
2024/01/06 10:33:55;;;;;;;;;;;17.40;44.10;;;;;;1583353;74;786;-70
2024/01/06 10:35:57;;;;;;;;;;;17.40;44.00;;;;;;1591407;74;1190;-72
2024/01/06 10:37:58;;;;;;;;;;;17.40;44.00;;;;;;1579232;74;779;-71
2024/01/06 10:40:10;;;;;;;;;;;17.40;44.00;;;;;;1543028;74;796;-71
2024/01/06 10:42:12;;;;;;;;;;;17.40;44.10;;;;;;1585997;74;1929;-71
2024/01/06 10:44:14;;;;;;;;;;;17.40;44.00;;;;;;1583409;74;728;-71
2024/01/06 10:46:16;;;;;;;;;;;17.40;44.00;;;;;;1584039;74;1648;-68
2024/01/06 10:48:17;;;;;;;;;;;17.40;44.00;;;;;;1591077;74;754;-71
2024/01/06 10:50:21;;;;;;;;;;;17.40;44.00;;;;;;1582514;74;681;-68
2024/01/06 10:52:23;;;;;;;;;;;17.30;43.90;;;;;;1580982;73;786;-68
2024/01/06 10:54:25;;;;;;;;;;;17.40;43.90;;;;;;1587465;73;728;-70
2024/01/06 10:56:26;;;;;;;;;;;17.30;44.10;;;;;;1579934;74;1135;-72
2024/01/06 10:58:28;;;;;;;;;;;17.40;44.00;;;;;;1588287;74;591;-68
2024/01/06 11:00:30;;;;;;;;;;;17.40;44.00;;;;;;1588028;74;1566;-69
2024/01/06 11:02:32;;;;;;;;;;;17.40;44.00;;;;;;1578433;74;1945;-68
2024/01/06 11:04:34;;;;;;;;;;;17.40;44.00;;;;;;1570176;73;699;-69
2024/01/06 11:06:36;;;;;;;;;;;17.40;44.00;;;;;;1585801;73;1138;-72
2024/01/06 11:08:49;;;;;;;;;;;17.40;44.00;;;;;;1594201;74;679;-72
2024/01/06 11:10:46;;;;;;;;;;;17.40;44.10;;;;;;1577288;74;1400;-70
2024/01/06 11:12:49;;;;;;;;;;;17.40;44.00;;;;;;1577934;74;1521;-71
2024/01/06 11:14:52;;;;;;;;;;;17.40;43.90;;;;;;1582279;74;1006;-69
2024/01/06 11:16:54;;;;;;;;;;;17.30;44.00;;;;;;1590353;73;1155;-72
2024/01/06 11:18:56;;;;;;;;;;;17.40;44.00;;;;;;1575503;74;739;-72
2024/01/06 11:21:21;;;;;;;;;;;17.30;44.00;;;;;;1577725;74;757;-71
2024/01/06 11:23:20;;;;;;;;;;;17.40;44.00;;;;;;1587269;74;1919;-68
2024/01/06 11:25:22;;;;;;;;;;;17.40;43.90;;;;;;1575901;74;734;-68
2024/01/06 11:27:28;;;;;;;;;;;17.40;43.90;;;;;;1590011;74;1599;-72
2024/01/06 11:29:28;;;;;;;;;;;17.40;43.90;;;;;;1583599;74;2014;-72
2024/01/06 11:31:32;;;;;;;;;;;17.40;44.00;;;;;;1554954;75;1233;-70
2024/01/06 11:33:34;;;;;;;;;;;17.40;43.90;;;;;;1583211;74;706;-68
2024/01/06 11:35:36;;;;;;;;;;;17.40;43.90;;;;;;1555437;75;1193;-71
2024/01/06 11:37:40;;;;;;;;;;;17.40;43.90;;;;;;1545231;74;730;-70
2024/01/06 11:39:42;;;;;;;;;;;17.40;44.00;;;;;;1587756;74;1068;-69
2024/01/06 11:41:50;;;;;;;;;;;17.40;44.00;;;;;;1582871;74;1929;-71
2024/01/06 11:43:52;;;;;;;;;;;17.30;44.00;;;;;;1582396;74;669;-72
2024/01/06 11:45:54;;;;;;;;;;;17.50;44.00;;;;;;1585376;74;1093;-67
2024/01/06 11:48:00;;;;;;;;;;;17.40;43.80;;;;;;1583187;74;851;-72
2024/01/06 11:50:00;;;;;;;;;;;17.50;43.90;;;;;;1583047;74;1366;-70
2024/01/06 11:52:02;;;;;;;;;;;17.30;43.30;;;;;;1584145;74;766;-73
2024/01/06 11:54:04;;;;;;;;;;;17.40;43.50;;;;;;1582047;74;782;-71
2024/01/06 11:56:06;;;;;;;;;;;17.40;43.60;;;;;;1584283;73;1279;-74
2024/01/06 11:58:08;;;;;;;;;;;17.30;43.90;;;;;;1572365;74;695;-75
2024/01/06 12:00:11;;;;;;;;;;;17.40;43.90;;;;;;1581919;73;588;-78
2024/01/06 12:02:15;;;;;;;;;;;17.30;44.00;;;;;;1585879;74;1911;-78
2024/01/06 12:04:17;;;;;;;;;;;17.30;44.00;;;;;;1582304;74;555;-76
2024/01/06 12:06:25;;;;;;;;;;;17.40;44.10;;;;;;1583561;73;1116;-84
2024/01/06 12:08:24;;;;;;;;;;;17.30;44.20;;;;;;1580624;73;812;-80